<?xml version="1.0" encoding="UTF-8" standalone="no" ?>
<gpx xmlns="http://www.topografix.com/GPX/1/1" xmlns:xsi="http://www.w3.org/2001/XMLSchema-instance" xsi:schemaLocation="http://www.topografix.com/GPX/1/1 http://www.topografix.com/GPX/1/1/gpx.xsd" version="1.1" creator="VisuGPX - https://www.visugpx.com">
  <metadata>
    <name>Tour du Rocher du Long Boyau</name>
    <desc><![CDATA[Rando nordique, départ carrefour des gorges de Franchard, chemin du long Boyau, Centre initiation à la forêt, et retour par la route des gorges de Franchard]]></desc>
  </metadata>
  <trk>
    <name><![CDATA[16 mai 2015 10:00:13]]></name>
    <cmt><![CDATA[16 mai 2015 10:00:13]]></cmt>
    <trkseg>
      <trkpt lat="48.4038" lon="2.63859">
        <ele>126</ele>
        <time>2015-05-16T08:00:14Z</time>
      </trkpt>
      <trkpt lat="48.40379" lon="2.63867">
        <ele>128</ele>
        <time>2015-05-16T08:00:15Z</time>
      </trkpt>
      <trkpt lat="48.40375" lon="2.63854">
        <ele>131</ele>
        <time>2015-05-16T08:00:27Z</time>
      </trkpt>
      <trkpt lat="48.40366" lon="2.6386">
        <ele>132</ele>
        <time>2015-05-16T08:00:39Z</time>
      </trkpt>
      <trkpt lat="48.40328" lon="2.63867">
        <ele>136</ele>
        <time>2015-05-16T08:01:11Z</time>
      </trkpt>
      <trkpt lat="48.40312" lon="2.63869">
        <ele>137</ele>
        <time>2015-05-16T08:01:22Z</time>
      </trkpt>
      <trkpt lat="48.40308" lon="2.63872">
        <ele>137</ele>
        <time>2015-05-16T08:01:27Z</time>
      </trkpt>
      <trkpt lat="48.40303" lon="2.63873">
        <ele>136</ele>
        <time>2015-05-16T08:01:33Z</time>
      </trkpt>
      <trkpt lat="48.40291" lon="2.63881">
        <ele>136</ele>
        <time>2015-05-16T08:01:44Z</time>
      </trkpt>
      <trkpt lat="48.40287" lon="2.63886">
        <ele>136</ele>
        <time>2015-05-16T08:01:48Z</time>
      </trkpt>
      <trkpt lat="48.40282" lon="2.63886">
        <ele>137</ele>
        <time>2015-05-16T08:01:53Z</time>
      </trkpt>
      <trkpt lat="48.40277" lon="2.63886">
        <ele>137</ele>
        <time>2015-05-16T08:01:58Z</time>
      </trkpt>
      <trkpt lat="48.40272" lon="2.6389">
        <ele>137</ele>
        <time>2015-05-16T08:02:02Z</time>
      </trkpt>
      <trkpt lat="48.40266" lon="2.63892">
        <ele>137</ele>
        <time>2015-05-16T08:02:06Z</time>
      </trkpt>
      <trkpt lat="48.40261" lon="2.63893">
        <ele>137</ele>
        <time>2015-05-16T08:02:09Z</time>
      </trkpt>
      <trkpt lat="48.40247" lon="2.63899">
        <ele>136</ele>
        <time>2015-05-16T08:02:22Z</time>
      </trkpt>
      <trkpt lat="48.40243" lon="2.63897">
        <ele>135</ele>
        <time>2015-05-16T08:02:25Z</time>
      </trkpt>
      <trkpt lat="48.40233" lon="2.63902">
        <ele>136</ele>
        <time>2015-05-16T08:02:31Z</time>
      </trkpt>
      <trkpt lat="48.40223" lon="2.63897">
        <ele>136</ele>
        <time>2015-05-16T08:02:39Z</time>
      </trkpt>
      <trkpt lat="48.40218" lon="2.63899">
        <ele>136</ele>
        <time>2015-05-16T08:02:44Z</time>
      </trkpt>
      <trkpt lat="48.40212" lon="2.63902">
        <ele>136</ele>
        <time>2015-05-16T08:02:48Z</time>
      </trkpt>
      <trkpt lat="48.40192" lon="2.63908">
        <ele>137</ele>
        <time>2015-05-16T08:03:03Z</time>
      </trkpt>
      <trkpt lat="48.40187" lon="2.63907">
        <ele>136</ele>
        <time>2015-05-16T08:03:08Z</time>
      </trkpt>
      <trkpt lat="48.40182" lon="2.63902">
        <ele>136</ele>
        <time>2015-05-16T08:03:13Z</time>
      </trkpt>
      <trkpt lat="48.40164" lon="2.63906">
        <ele>136</ele>
        <time>2015-05-16T08:03:31Z</time>
      </trkpt>
      <trkpt lat="48.40146" lon="2.63914">
        <ele>135</ele>
        <time>2015-05-16T08:03:43Z</time>
      </trkpt>
      <trkpt lat="48.40143" lon="2.6392">
        <ele>135</ele>
        <time>2015-05-16T08:03:46Z</time>
      </trkpt>
      <trkpt lat="48.40134" lon="2.63922">
        <ele>135</ele>
        <time>2015-05-16T08:03:51Z</time>
      </trkpt>
      <trkpt lat="48.40123" lon="2.63921">
        <ele>135</ele>
        <time>2015-05-16T08:03:58Z</time>
      </trkpt>
      <trkpt lat="48.40117" lon="2.63924">
        <ele>135</ele>
        <time>2015-05-16T08:04:03Z</time>
      </trkpt>
      <trkpt lat="48.401" lon="2.63939">
        <ele>134</ele>
        <time>2015-05-16T08:04:17Z</time>
      </trkpt>
      <trkpt lat="48.40096" lon="2.63943">
        <ele>134</ele>
        <time>2015-05-16T08:04:21Z</time>
      </trkpt>
      <trkpt lat="48.40086" lon="2.63944">
        <ele>136</ele>
        <time>2015-05-16T08:04:28Z</time>
      </trkpt>
      <trkpt lat="48.4008" lon="2.63945">
        <ele>136</ele>
        <time>2015-05-16T08:04:32Z</time>
      </trkpt>
      <trkpt lat="48.4007" lon="2.63949">
        <ele>136</ele>
        <time>2015-05-16T08:04:39Z</time>
      </trkpt>
      <trkpt lat="48.40065" lon="2.63951">
        <ele>136</ele>
        <time>2015-05-16T08:04:43Z</time>
      </trkpt>
      <trkpt lat="48.40049" lon="2.63956">
        <ele>135</ele>
        <time>2015-05-16T08:04:56Z</time>
      </trkpt>
      <trkpt lat="48.40039" lon="2.63957">
        <ele>135</ele>
        <time>2015-05-16T08:05:03Z</time>
      </trkpt>
      <trkpt lat="48.40029" lon="2.63961">
        <ele>134</ele>
        <time>2015-05-16T08:05:11Z</time>
      </trkpt>
      <trkpt lat="48.4002" lon="2.63958">
        <ele>133</ele>
        <time>2015-05-16T08:05:20Z</time>
      </trkpt>
      <trkpt lat="48.40012" lon="2.63965">
        <ele>132</ele>
        <time>2015-05-16T08:05:29Z</time>
      </trkpt>
      <trkpt lat="48.40003" lon="2.63965">
        <ele>131</ele>
        <time>2015-05-16T08:05:35Z</time>
      </trkpt>
      <trkpt lat="48.39994" lon="2.63969">
        <ele>131</ele>
        <time>2015-05-16T08:05:44Z</time>
      </trkpt>
      <trkpt lat="48.39986" lon="2.63977">
        <ele>130</ele>
        <time>2015-05-16T08:05:53Z</time>
      </trkpt>
      <trkpt lat="48.39982" lon="2.63976">
        <ele>129</ele>
        <time>2015-05-16T08:05:56Z</time>
      </trkpt>
      <trkpt lat="48.39974" lon="2.63985">
        <ele>128</ele>
        <time>2015-05-16T08:06:07Z</time>
      </trkpt>
      <trkpt lat="48.39969" lon="2.63999">
        <ele>127</ele>
        <time>2015-05-16T08:06:15Z</time>
      </trkpt>
      <trkpt lat="48.39959" lon="2.64005">
        <ele>126</ele>
        <time>2015-05-16T08:06:23Z</time>
      </trkpt>
      <trkpt lat="48.3995" lon="2.64012">
        <ele>124</ele>
        <time>2015-05-16T08:06:35Z</time>
      </trkpt>
      <trkpt lat="48.39941" lon="2.64011">
        <ele>123</ele>
        <time>2015-05-16T08:06:42Z</time>
      </trkpt>
      <trkpt lat="48.39902" lon="2.63991">
        <ele>119</ele>
        <time>2015-05-16T08:07:14Z</time>
      </trkpt>
      <trkpt lat="48.39893" lon="2.63988">
        <ele>117</ele>
        <time>2015-05-16T08:07:24Z</time>
      </trkpt>
      <trkpt lat="48.39855" lon="2.63973">
        <ele>111</ele>
        <time>2015-05-16T08:07:54Z</time>
      </trkpt>
      <trkpt lat="48.39847" lon="2.63969">
        <ele>110</ele>
        <time>2015-05-16T08:07:59Z</time>
      </trkpt>
      <trkpt lat="48.39837" lon="2.63968">
        <ele>108</ele>
        <time>2015-05-16T08:08:06Z</time>
      </trkpt>
      <trkpt lat="48.39828" lon="2.63964">
        <ele>107</ele>
        <time>2015-05-16T08:08:14Z</time>
      </trkpt>
      <trkpt lat="48.39818" lon="2.63964">
        <ele>107</ele>
        <time>2015-05-16T08:08:22Z</time>
      </trkpt>
      <trkpt lat="48.39814" lon="2.63977">
        <ele>106</ele>
        <time>2015-05-16T08:08:40Z</time>
      </trkpt>
      <trkpt lat="48.39814" lon="2.63984">
        <ele>105</ele>
        <time>2015-05-16T08:08:47Z</time>
      </trkpt>
      <trkpt lat="48.39814" lon="2.63991">
        <ele>104</ele>
        <time>2015-05-16T08:08:51Z</time>
      </trkpt>
      <trkpt lat="48.39809" lon="2.64045">
        <ele>101</ele>
        <time>2015-05-16T08:09:24Z</time>
      </trkpt>
      <trkpt lat="48.39802" lon="2.64064">
        <ele>100</ele>
        <time>2015-05-16T08:09:35Z</time>
      </trkpt>
      <trkpt lat="48.39798" lon="2.64135">
        <ele>99</ele>
        <time>2015-05-16T08:10:05Z</time>
      </trkpt>
      <trkpt lat="48.39793" lon="2.64199">
        <ele>97</ele>
        <time>2015-05-16T08:10:39Z</time>
      </trkpt>
      <trkpt lat="48.39793" lon="2.64207">
        <ele>97</ele>
        <time>2015-05-16T08:10:43Z</time>
      </trkpt>
      <trkpt lat="48.3979" lon="2.64212">
        <ele>97</ele>
        <time>2015-05-16T08:10:47Z</time>
      </trkpt>
      <trkpt lat="48.39788" lon="2.6423">
        <ele>96</ele>
        <time>2015-05-16T08:10:53Z</time>
      </trkpt>
      <trkpt lat="48.39789" lon="2.64248">
        <ele>95</ele>
        <time>2015-05-16T08:11:00Z</time>
      </trkpt>
      <trkpt lat="48.39774" lon="2.64315">
        <ele>93</ele>
        <time>2015-05-16T08:11:33Z</time>
      </trkpt>
      <trkpt lat="48.39776" lon="2.64391">
        <ele>93</ele>
        <time>2015-05-16T08:12:04Z</time>
      </trkpt>
      <trkpt lat="48.39776" lon="2.64463">
        <ele>94</ele>
        <time>2015-05-16T08:12:37Z</time>
      </trkpt>
      <trkpt lat="48.39773" lon="2.6452">
        <ele>96</ele>
        <time>2015-05-16T08:13:08Z</time>
      </trkpt>
      <trkpt lat="48.39773" lon="2.64534">
        <ele>96</ele>
        <time>2015-05-16T08:13:14Z</time>
      </trkpt>
      <trkpt lat="48.39773" lon="2.64608">
        <ele>95</ele>
        <time>2015-05-16T08:13:45Z</time>
      </trkpt>
      <trkpt lat="48.39775" lon="2.64622">
        <ele>94</ele>
        <time>2015-05-16T08:13:54Z</time>
      </trkpt>
      <trkpt lat="48.39774" lon="2.64639">
        <ele>93</ele>
        <time>2015-05-16T08:14:01Z</time>
      </trkpt>
      <trkpt lat="48.39776" lon="2.64668">
        <ele>94</ele>
        <time>2015-05-16T08:14:14Z</time>
      </trkpt>
      <trkpt lat="48.39782" lon="2.64678">
        <ele>94</ele>
        <time>2015-05-16T08:14:24Z</time>
      </trkpt>
      <trkpt lat="48.3979" lon="2.64706">
        <ele>94</ele>
        <time>2015-05-16T08:14:40Z</time>
      </trkpt>
      <trkpt lat="48.39793" lon="2.64767">
        <ele>95</ele>
        <time>2015-05-16T08:15:11Z</time>
      </trkpt>
      <trkpt lat="48.3979" lon="2.64827">
        <ele>95</ele>
        <time>2015-05-16T08:15:43Z</time>
      </trkpt>
      <trkpt lat="48.39786" lon="2.64852">
        <ele>95</ele>
        <time>2015-05-16T08:15:50Z</time>
      </trkpt>
      <trkpt lat="48.39778" lon="2.64916">
        <ele>93</ele>
        <time>2015-05-16T08:16:21Z</time>
      </trkpt>
      <trkpt lat="48.39774" lon="2.64952">
        <ele>95</ele>
        <time>2015-05-16T08:16:33Z</time>
      </trkpt>
      <trkpt lat="48.39774" lon="2.6496">
        <ele>95</ele>
        <time>2015-05-16T08:16:38Z</time>
      </trkpt>
      <trkpt lat="48.39769" lon="2.64999">
        <ele>93</ele>
        <time>2015-05-16T08:16:56Z</time>
      </trkpt>
      <trkpt lat="48.39765" lon="2.65078">
        <ele>95</ele>
        <time>2015-05-16T08:17:29Z</time>
      </trkpt>
      <trkpt lat="48.39761" lon="2.6511">
        <ele>93</ele>
        <time>2015-05-16T08:17:44Z</time>
      </trkpt>
      <trkpt lat="48.39759" lon="2.65117">
        <ele>92</ele>
        <time>2015-05-16T08:17:48Z</time>
      </trkpt>
      <trkpt lat="48.39751" lon="2.65178">
        <ele>89</ele>
        <time>2015-05-16T08:18:24Z</time>
      </trkpt>
      <trkpt lat="48.39753" lon="2.65191">
        <ele>89</ele>
        <time>2015-05-16T08:18:33Z</time>
      </trkpt>
      <trkpt lat="48.39742" lon="2.65271">
        <ele>89</ele>
        <time>2015-05-16T08:19:07Z</time>
      </trkpt>
      <trkpt lat="48.39733" lon="2.65346">
        <ele>89</ele>
        <time>2015-05-16T08:19:37Z</time>
      </trkpt>
      <trkpt lat="48.39732" lon="2.65354">
        <ele>89</ele>
        <time>2015-05-16T08:19:41Z</time>
      </trkpt>
      <trkpt lat="48.39735" lon="2.65362">
        <ele>89</ele>
        <time>2015-05-16T08:19:45Z</time>
      </trkpt>
      <trkpt lat="48.39732" lon="2.65383">
        <ele>88</ele>
        <time>2015-05-16T08:19:57Z</time>
      </trkpt>
      <trkpt lat="48.39726" lon="2.65394">
        <ele>88</ele>
        <time>2015-05-16T08:20:03Z</time>
      </trkpt>
      <trkpt lat="48.3972" lon="2.65429">
        <ele>87</ele>
        <time>2015-05-16T08:20:13Z</time>
      </trkpt>
      <trkpt lat="48.3972" lon="2.65437">
        <ele>87</ele>
        <time>2015-05-16T08:20:16Z</time>
      </trkpt>
      <trkpt lat="48.39723" lon="2.65445">
        <ele>87</ele>
        <time>2015-05-16T08:20:20Z</time>
      </trkpt>
      <trkpt lat="48.39719" lon="2.65456">
        <ele>87</ele>
        <time>2015-05-16T08:20:27Z</time>
      </trkpt>
      <trkpt lat="48.3972" lon="2.65471">
        <ele>87</ele>
        <time>2015-05-16T08:20:35Z</time>
      </trkpt>
      <trkpt lat="48.39712" lon="2.65547">
        <ele>87</ele>
        <time>2015-05-16T08:21:10Z</time>
      </trkpt>
      <trkpt lat="48.39703" lon="2.65564">
        <ele>86</ele>
        <time>2015-05-16T08:21:25Z</time>
      </trkpt>
      <trkpt lat="48.397" lon="2.65575">
        <ele>86</ele>
        <time>2015-05-16T08:21:30Z</time>
      </trkpt>
      <trkpt lat="48.39696" lon="2.65588">
        <ele>86</ele>
        <time>2015-05-16T08:21:38Z</time>
      </trkpt>
      <trkpt lat="48.397" lon="2.65618">
        <ele>86</ele>
        <time>2015-05-16T08:21:50Z</time>
      </trkpt>
      <trkpt lat="48.39692" lon="2.65659">
        <ele>87</ele>
        <time>2015-05-16T08:22:04Z</time>
      </trkpt>
      <trkpt lat="48.39686" lon="2.65688">
        <ele>90</ele>
        <time>2015-05-16T08:22:17Z</time>
      </trkpt>
      <trkpt lat="48.39678" lon="2.65732">
        <ele>88</ele>
        <time>2015-05-16T08:22:50Z</time>
      </trkpt>
      <trkpt lat="48.39661" lon="2.65803">
        <ele>87</ele>
        <time>2015-05-16T08:23:26Z</time>
      </trkpt>
      <trkpt lat="48.39651" lon="2.65859">
        <ele>87</ele>
        <time>2015-05-16T08:23:46Z</time>
      </trkpt>
      <trkpt lat="48.39636" lon="2.65913">
        <ele>88</ele>
        <time>2015-05-16T08:24:17Z</time>
      </trkpt>
      <trkpt lat="48.39621" lon="2.65976">
        <ele>89</ele>
        <time>2015-05-16T08:24:44Z</time>
      </trkpt>
      <trkpt lat="48.39619" lon="2.65999">
        <ele>88</ele>
        <time>2015-05-16T08:25:04Z</time>
      </trkpt>
      <trkpt lat="48.39613" lon="2.6601">
        <ele>88</ele>
        <time>2015-05-16T08:25:12Z</time>
      </trkpt>
      <trkpt lat="48.3959" lon="2.66082">
        <ele>88</ele>
        <time>2015-05-16T08:25:45Z</time>
      </trkpt>
      <trkpt lat="48.39587" lon="2.66096">
        <ele>88</ele>
        <time>2015-05-16T08:25:52Z</time>
      </trkpt>
      <trkpt lat="48.39582" lon="2.66119">
        <ele>88</ele>
        <time>2015-05-16T08:26:06Z</time>
      </trkpt>
      <trkpt lat="48.39587" lon="2.66184">
        <ele>89</ele>
        <time>2015-05-16T08:26:37Z</time>
      </trkpt>
      <trkpt lat="48.39593" lon="2.66214">
        <ele>89</ele>
        <time>2015-05-16T08:26:51Z</time>
      </trkpt>
      <trkpt lat="48.39591" lon="2.66269">
        <ele>89</ele>
        <time>2015-05-16T08:27:10Z</time>
      </trkpt>
      <trkpt lat="48.39597" lon="2.66279">
        <ele>90</ele>
        <time>2015-05-16T08:27:17Z</time>
      </trkpt>
      <trkpt lat="48.39618" lon="2.66337">
        <ele>93</ele>
        <time>2015-05-16T08:27:46Z</time>
      </trkpt>
      <trkpt lat="48.39617" lon="2.66344">
        <ele>93</ele>
        <time>2015-05-16T08:27:51Z</time>
      </trkpt>
      <trkpt lat="48.39594" lon="2.66401">
        <ele>92</ele>
        <time>2015-05-16T08:28:22Z</time>
      </trkpt>
      <trkpt lat="48.39588" lon="2.66431">
        <ele>91</ele>
        <time>2015-05-16T08:28:37Z</time>
      </trkpt>
      <trkpt lat="48.39585" lon="2.66445">
        <ele>90</ele>
        <time>2015-05-16T08:28:43Z</time>
      </trkpt>
      <trkpt lat="48.39581" lon="2.66509">
        <ele>88</ele>
        <time>2015-05-16T08:29:15Z</time>
      </trkpt>
      <trkpt lat="48.39575" lon="2.6658">
        <ele>90</ele>
        <time>2015-05-16T08:29:46Z</time>
      </trkpt>
      <trkpt lat="48.39576" lon="2.66639">
        <ele>90</ele>
        <time>2015-05-16T08:30:22Z</time>
      </trkpt>
      <trkpt lat="48.39569" lon="2.6673">
        <ele>90</ele>
        <time>2015-05-16T08:30:56Z</time>
      </trkpt>
      <trkpt lat="48.3956" lon="2.66755">
        <ele>90</ele>
        <time>2015-05-16T08:31:09Z</time>
      </trkpt>
      <trkpt lat="48.39556" lon="2.66817">
        <ele>91</ele>
        <time>2015-05-16T08:31:42Z</time>
      </trkpt>
      <trkpt lat="48.39557" lon="2.66831">
        <ele>91</ele>
        <time>2015-05-16T08:31:46Z</time>
      </trkpt>
      <trkpt lat="48.39547" lon="2.66857">
        <ele>91</ele>
        <time>2015-05-16T08:31:58Z</time>
      </trkpt>
      <trkpt lat="48.39544" lon="2.66902">
        <ele>90</ele>
        <time>2015-05-16T08:32:15Z</time>
      </trkpt>
      <trkpt lat="48.39547" lon="2.66923">
        <ele>90</ele>
        <time>2015-05-16T08:32:27Z</time>
      </trkpt>
      <trkpt lat="48.39545" lon="2.66937">
        <ele>90</ele>
        <time>2015-05-16T08:32:47Z</time>
      </trkpt>
      <trkpt lat="48.39542" lon="2.66944">
        <ele>89</ele>
        <time>2015-05-16T08:32:56Z</time>
      </trkpt>
      <trkpt lat="48.39546" lon="2.66967">
        <ele>89</ele>
        <time>2015-05-16T08:33:13Z</time>
      </trkpt>
      <trkpt lat="48.39544" lon="2.66975">
        <ele>90</ele>
        <time>2015-05-16T08:33:16Z</time>
      </trkpt>
      <trkpt lat="48.39538" lon="2.66986">
        <ele>89</ele>
        <time>2015-05-16T08:33:23Z</time>
      </trkpt>
      <trkpt lat="48.39536" lon="2.67001">
        <ele>88</ele>
        <time>2015-05-16T08:33:31Z</time>
      </trkpt>
      <trkpt lat="48.39524" lon="2.67073">
        <ele>85</ele>
        <time>2015-05-16T08:34:02Z</time>
      </trkpt>
      <trkpt lat="48.39529" lon="2.67085">
        <ele>86</ele>
        <time>2015-05-16T08:34:10Z</time>
      </trkpt>
      <trkpt lat="48.3953" lon="2.67129">
        <ele>86</ele>
        <time>2015-05-16T08:34:29Z</time>
      </trkpt>
      <trkpt lat="48.39531" lon="2.67131">
        <ele>86</ele>
        <time>2015-05-16T08:34:35Z</time>
      </trkpt>
      <trkpt lat="48.39529" lon="2.6714">
        <ele>86</ele>
        <time>2015-05-16T08:34:48Z</time>
      </trkpt>
      <trkpt lat="48.39526" lon="2.6714">
        <ele>85</ele>
        <time>2015-05-16T08:35:37Z</time>
      </trkpt>
      <trkpt lat="48.39531" lon="2.67154">
        <ele>84</ele>
        <time>2015-05-16T08:35:49Z</time>
      </trkpt>
      <trkpt lat="48.39538" lon="2.67164">
        <ele>85</ele>
        <time>2015-05-16T08:35:55Z</time>
      </trkpt>
      <trkpt lat="48.39543" lon="2.67171">
        <ele>86</ele>
        <time>2015-05-16T08:36:01Z</time>
      </trkpt>
      <trkpt lat="48.39546" lon="2.67186">
        <ele>88</ele>
        <time>2015-05-16T08:36:16Z</time>
      </trkpt>
      <trkpt lat="48.39549" lon="2.67193">
        <ele>88</ele>
        <time>2015-05-16T08:36:22Z</time>
      </trkpt>
      <trkpt lat="48.39568" lon="2.67237">
        <ele>91</ele>
        <time>2015-05-16T08:36:52Z</time>
      </trkpt>
      <trkpt lat="48.39571" lon="2.67244">
        <ele>91</ele>
        <time>2015-05-16T08:36:56Z</time>
      </trkpt>
      <trkpt lat="48.39573" lon="2.67258">
        <ele>91</ele>
        <time>2015-05-16T08:37:02Z</time>
      </trkpt>
      <trkpt lat="48.39595" lon="2.67314">
        <ele>93</ele>
        <time>2015-05-16T08:37:35Z</time>
      </trkpt>
      <trkpt lat="48.396" lon="2.67317">
        <ele>93</ele>
        <time>2015-05-16T08:37:39Z</time>
      </trkpt>
      <trkpt lat="48.39631" lon="2.67356">
        <ele>96</ele>
        <time>2015-05-16T08:38:09Z</time>
      </trkpt>
      <trkpt lat="48.39643" lon="2.67357">
        <ele>96</ele>
        <time>2015-05-16T08:38:18Z</time>
      </trkpt>
      <trkpt lat="48.39687" lon="2.67376">
        <ele>90</ele>
        <time>2015-05-16T08:38:50Z</time>
      </trkpt>
      <trkpt lat="48.39695" lon="2.67376">
        <ele>89</ele>
        <time>2015-05-16T08:38:54Z</time>
      </trkpt>
      <trkpt lat="48.39704" lon="2.67379">
        <ele>89</ele>
        <time>2015-05-16T08:39:02Z</time>
      </trkpt>
      <trkpt lat="48.39722" lon="2.67387">
        <ele>86</ele>
        <time>2015-05-16T08:39:18Z</time>
      </trkpt>
      <trkpt lat="48.39726" lon="2.6739">
        <ele>85</ele>
        <time>2015-05-16T08:39:22Z</time>
      </trkpt>
      <trkpt lat="48.39773" lon="2.6741">
        <ele>82</ele>
        <time>2015-05-16T08:39:58Z</time>
      </trkpt>
      <trkpt lat="48.39778" lon="2.67414">
        <ele>82</ele>
        <time>2015-05-16T08:40:02Z</time>
      </trkpt>
      <trkpt lat="48.39786" lon="2.6742">
        <ele>82</ele>
        <time>2015-05-16T08:40:08Z</time>
      </trkpt>
      <trkpt lat="48.3981" lon="2.67425">
        <ele>84</ele>
        <time>2015-05-16T08:40:24Z</time>
      </trkpt>
      <trkpt lat="48.39816" lon="2.67425">
        <ele>84</ele>
        <time>2015-05-16T08:40:29Z</time>
      </trkpt>
      <trkpt lat="48.39822" lon="2.67427">
        <ele>84</ele>
        <time>2015-05-16T08:40:33Z</time>
      </trkpt>
      <trkpt lat="48.39857" lon="2.67444">
        <ele>82</ele>
        <time>2015-05-16T08:41:04Z</time>
      </trkpt>
      <trkpt lat="48.39862" lon="2.67446">
        <ele>82</ele>
        <time>2015-05-16T08:41:07Z</time>
      </trkpt>
      <trkpt lat="48.39908" lon="2.6746">
        <ele>81</ele>
        <time>2015-05-16T08:41:37Z</time>
      </trkpt>
      <trkpt lat="48.39955" lon="2.67471">
        <ele>83</ele>
        <time>2015-05-16T08:42:10Z</time>
      </trkpt>
      <trkpt lat="48.39995" lon="2.67483">
        <ele>83</ele>
        <time>2015-05-16T08:42:42Z</time>
      </trkpt>
      <trkpt lat="48.40039" lon="2.67503">
        <ele>81</ele>
        <time>2015-05-16T08:43:14Z</time>
      </trkpt>
      <trkpt lat="48.40045" lon="2.67502">
        <ele>81</ele>
        <time>2015-05-16T08:43:19Z</time>
      </trkpt>
      <trkpt lat="48.40066" lon="2.67512">
        <ele>81</ele>
        <time>2015-05-16T08:43:35Z</time>
      </trkpt>
      <trkpt lat="48.40071" lon="2.67518">
        <ele>81</ele>
        <time>2015-05-16T08:43:41Z</time>
      </trkpt>
      <trkpt lat="48.40091" lon="2.67527">
        <ele>80</ele>
        <time>2015-05-16T08:43:57Z</time>
      </trkpt>
      <trkpt lat="48.40133" lon="2.67534">
        <ele>80</ele>
        <time>2015-05-16T08:44:27Z</time>
      </trkpt>
      <trkpt lat="48.40143" lon="2.67537">
        <ele>79</ele>
        <time>2015-05-16T08:44:33Z</time>
      </trkpt>
      <trkpt lat="48.40189" lon="2.67549">
        <ele>80</ele>
        <time>2015-05-16T08:45:04Z</time>
      </trkpt>
      <trkpt lat="48.40205" lon="2.67553">
        <ele>80</ele>
        <time>2015-05-16T08:45:13Z</time>
      </trkpt>
      <trkpt lat="48.40235" lon="2.67567">
        <ele>82</ele>
        <time>2015-05-16T08:45:44Z</time>
      </trkpt>
      <trkpt lat="48.40274" lon="2.67579">
        <ele>82</ele>
        <time>2015-05-16T08:46:09Z</time>
      </trkpt>
      <trkpt lat="48.40284" lon="2.67584">
        <ele>81</ele>
        <time>2015-05-16T08:46:16Z</time>
      </trkpt>
      <trkpt lat="48.40289" lon="2.67588">
        <ele>81</ele>
        <time>2015-05-16T08:46:21Z</time>
      </trkpt>
      <trkpt lat="48.40299" lon="2.67592">
        <ele>82</ele>
        <time>2015-05-16T08:46:31Z</time>
      </trkpt>
      <trkpt lat="48.40303" lon="2.67597">
        <ele>81</ele>
        <time>2015-05-16T08:46:37Z</time>
      </trkpt>
      <trkpt lat="48.40357" lon="2.6761">
        <ele>82</ele>
        <time>2015-05-16T08:47:11Z</time>
      </trkpt>
      <trkpt lat="48.40362" lon="2.67613">
        <ele>82</ele>
        <time>2015-05-16T08:47:18Z</time>
      </trkpt>
      <trkpt lat="48.40372" lon="2.67615">
        <ele>81</ele>
        <time>2015-05-16T08:47:25Z</time>
      </trkpt>
      <trkpt lat="48.40398" lon="2.67626">
        <ele>82</ele>
        <time>2015-05-16T08:47:43Z</time>
      </trkpt>
      <trkpt lat="48.40403" lon="2.67628">
        <ele>82</ele>
        <time>2015-05-16T08:47:47Z</time>
      </trkpt>
      <trkpt lat="48.40437" lon="2.67639">
        <ele>84</ele>
        <time>2015-05-16T08:48:13Z</time>
      </trkpt>
      <trkpt lat="48.40472" lon="2.67656">
        <ele>83</ele>
        <time>2015-05-16T08:48:44Z</time>
      </trkpt>
      <trkpt lat="48.40515" lon="2.67667">
        <ele>83</ele>
        <time>2015-05-16T08:49:12Z</time>
      </trkpt>
      <trkpt lat="48.40516" lon="2.67675">
        <ele>83</ele>
        <time>2015-05-16T08:49:51Z</time>
      </trkpt>
      <trkpt lat="48.40512" lon="2.67673">
        <ele>84</ele>
        <time>2015-05-16T08:54:48Z</time>
      </trkpt>
      <trkpt lat="48.40512" lon="2.67668">
        <ele>83</ele>
        <time>2015-05-16T08:55:32Z</time>
      </trkpt>
      <trkpt lat="48.40518" lon="2.67672">
        <ele>83</ele>
        <time>2015-05-16T08:56:30Z</time>
      </trkpt>
      <trkpt lat="48.4053" lon="2.6767">
        <ele>84</ele>
        <time>2015-05-16T08:56:44Z</time>
      </trkpt>
      <trkpt lat="48.40533" lon="2.67664">
        <ele>84</ele>
        <time>2015-05-16T08:56:51Z</time>
      </trkpt>
      <trkpt lat="48.40529" lon="2.67659">
        <ele>84</ele>
        <time>2015-05-16T08:56:58Z</time>
      </trkpt>
      <trkpt lat="48.40526" lon="2.67652">
        <ele>84</ele>
        <time>2015-05-16T08:57:04Z</time>
      </trkpt>
      <trkpt lat="48.40524" lon="2.67637">
        <ele>83</ele>
        <time>2015-05-16T08:57:13Z</time>
      </trkpt>
      <trkpt lat="48.40509" lon="2.67613">
        <ele>83</ele>
        <time>2015-05-16T08:57:31Z</time>
      </trkpt>
      <trkpt lat="48.40508" lon="2.67609">
        <ele>84</ele>
        <time>2015-05-16T08:57:38Z</time>
      </trkpt>
      <trkpt lat="48.40505" lon="2.67604">
        <ele>83</ele>
        <time>2015-05-16T08:57:46Z</time>
      </trkpt>
      <trkpt lat="48.40497" lon="2.67595">
        <ele>84</ele>
        <time>2015-05-16T08:57:53Z</time>
      </trkpt>
      <trkpt lat="48.40495" lon="2.6758">
        <ele>83</ele>
        <time>2015-05-16T08:58:01Z</time>
      </trkpt>
      <trkpt lat="48.40487" lon="2.67565">
        <ele>83</ele>
        <time>2015-05-16T08:58:07Z</time>
      </trkpt>
      <trkpt lat="48.40479" lon="2.6755">
        <ele>82</ele>
        <time>2015-05-16T08:58:16Z</time>
      </trkpt>
      <trkpt lat="48.40444" lon="2.6749">
        <ele>80</ele>
        <time>2015-05-16T08:58:47Z</time>
      </trkpt>
      <trkpt lat="48.40415" lon="2.67432">
        <ele>80</ele>
        <time>2015-05-16T08:59:18Z</time>
      </trkpt>
      <trkpt lat="48.4041" lon="2.67422">
        <ele>79</ele>
        <time>2015-05-16T08:59:22Z</time>
      </trkpt>
      <trkpt lat="48.40407" lon="2.67416">
        <ele>79</ele>
        <time>2015-05-16T08:59:26Z</time>
      </trkpt>
      <trkpt lat="48.4039" lon="2.67386">
        <ele>81</ele>
        <time>2015-05-16T08:59:47Z</time>
      </trkpt>
      <trkpt lat="48.40357" lon="2.67321">
        <ele>81</ele>
        <time>2015-05-16T09:00:22Z</time>
      </trkpt>
      <trkpt lat="48.40324" lon="2.67262">
        <ele>80</ele>
        <time>2015-05-16T09:00:54Z</time>
      </trkpt>
      <trkpt lat="48.40288" lon="2.6719">
        <ele>80</ele>
        <time>2015-05-16T09:01:27Z</time>
      </trkpt>
      <trkpt lat="48.40248" lon="2.67132">
        <ele>80</ele>
        <time>2015-05-16T09:01:58Z</time>
      </trkpt>
      <trkpt lat="48.40243" lon="2.67121">
        <ele>79</ele>
        <time>2015-05-16T09:02:02Z</time>
      </trkpt>
      <trkpt lat="48.40239" lon="2.67111">
        <ele>79</ele>
        <time>2015-05-16T09:02:05Z</time>
      </trkpt>
      <trkpt lat="48.40208" lon="2.67049">
        <ele>79</ele>
        <time>2015-05-16T09:02:35Z</time>
      </trkpt>
      <trkpt lat="48.40204" lon="2.67042">
        <ele>78</ele>
        <time>2015-05-16T09:03:30Z</time>
      </trkpt>
      <trkpt lat="48.40195" lon="2.67024">
        <ele>80</ele>
        <time>2015-05-16T09:03:39Z</time>
      </trkpt>
      <trkpt lat="48.4019" lon="2.67015">
        <ele>79</ele>
        <time>2015-05-16T09:03:44Z</time>
      </trkpt>
      <trkpt lat="48.40174" lon="2.66989">
        <ele>80</ele>
        <time>2015-05-16T09:03:55Z</time>
      </trkpt>
      <trkpt lat="48.40173" lon="2.66986">
        <ele>80</ele>
        <time>2015-05-16T09:03:56Z</time>
      </trkpt>
      <trkpt lat="48.40166" lon="2.66974">
        <ele>80</ele>
        <time>2015-05-16T09:04:00Z</time>
      </trkpt>
      <trkpt lat="48.40132" lon="2.66906">
        <ele>81</ele>
        <time>2015-05-16T09:04:32Z</time>
      </trkpt>
      <trkpt lat="48.40099" lon="2.66837">
        <ele>81</ele>
        <time>2015-05-16T09:05:06Z</time>
      </trkpt>
      <trkpt lat="48.40069" lon="2.6678">
        <ele>81</ele>
        <time>2015-05-16T09:05:37Z</time>
      </trkpt>
      <trkpt lat="48.40045" lon="2.66718">
        <ele>82</ele>
        <time>2015-05-16T09:06:09Z</time>
      </trkpt>
      <trkpt lat="48.40044" lon="2.66704">
        <ele>82</ele>
        <time>2015-05-16T09:06:16Z</time>
      </trkpt>
      <trkpt lat="48.40044" lon="2.66689">
        <ele>83</ele>
        <time>2015-05-16T09:06:23Z</time>
      </trkpt>
      <trkpt lat="48.40047" lon="2.66615">
        <ele>84</ele>
        <time>2015-05-16T09:06:53Z</time>
      </trkpt>
      <trkpt lat="48.40047" lon="2.66601">
        <ele>84</ele>
        <time>2015-05-16T09:07:00Z</time>
      </trkpt>
      <trkpt lat="48.40048" lon="2.66587">
        <ele>84</ele>
        <time>2015-05-16T09:07:10Z</time>
      </trkpt>
      <trkpt lat="48.40049" lon="2.66573">
        <ele>84</ele>
        <time>2015-05-16T09:07:18Z</time>
      </trkpt>
      <trkpt lat="48.40049" lon="2.66495">
        <ele>85</ele>
        <time>2015-05-16T09:07:51Z</time>
      </trkpt>
      <trkpt lat="48.40051" lon="2.66422">
        <ele>86</ele>
        <time>2015-05-16T09:08:26Z</time>
      </trkpt>
      <trkpt lat="48.40055" lon="2.6635">
        <ele>87</ele>
        <time>2015-05-16T09:08:58Z</time>
      </trkpt>
      <trkpt lat="48.40057" lon="2.66276">
        <ele>88</ele>
        <time>2015-05-16T09:09:32Z</time>
      </trkpt>
      <trkpt lat="48.40068" lon="2.66206">
        <ele>88</ele>
        <time>2015-05-16T09:10:09Z</time>
      </trkpt>
      <trkpt lat="48.40081" lon="2.66138">
        <ele>88</ele>
        <time>2015-05-16T09:10:42Z</time>
      </trkpt>
      <trkpt lat="48.40099" lon="2.66068">
        <ele>89</ele>
        <time>2015-05-16T09:11:17Z</time>
      </trkpt>
      <trkpt lat="48.40112" lon="2.65998">
        <ele>90</ele>
        <time>2015-05-16T09:11:48Z</time>
      </trkpt>
      <trkpt lat="48.40124" lon="2.65926">
        <ele>90</ele>
        <time>2015-05-16T09:12:22Z</time>
      </trkpt>
      <trkpt lat="48.40125" lon="2.65854">
        <ele>91</ele>
        <time>2015-05-16T09:12:53Z</time>
      </trkpt>
      <trkpt lat="48.4013" lon="2.65786">
        <ele>92</ele>
        <time>2015-05-16T09:13:28Z</time>
      </trkpt>
      <trkpt lat="48.40137" lon="2.65713">
        <ele>92</ele>
        <time>2015-05-16T09:14:01Z</time>
      </trkpt>
      <trkpt lat="48.40141" lon="2.65639">
        <ele>91</ele>
        <time>2015-05-16T09:14:33Z</time>
      </trkpt>
      <trkpt lat="48.40144" lon="2.65607">
        <ele>92</ele>
        <time>2015-05-16T09:14:50Z</time>
      </trkpt>
      <trkpt lat="48.40149" lon="2.65579">
        <ele>91</ele>
        <time>2015-05-16T09:15:07Z</time>
      </trkpt>
      <trkpt lat="48.40155" lon="2.65507">
        <ele>92</ele>
        <time>2015-05-16T09:15:41Z</time>
      </trkpt>
      <trkpt lat="48.40157" lon="2.65497">
        <ele>92</ele>
        <time>2015-05-16T09:15:46Z</time>
      </trkpt>
      <trkpt lat="48.40165" lon="2.65438">
        <ele>94</ele>
        <time>2015-05-16T09:16:18Z</time>
      </trkpt>
      <trkpt lat="48.4017" lon="2.6535">
        <ele>96</ele>
        <time>2015-05-16T09:16:54Z</time>
      </trkpt>
      <trkpt lat="48.40171" lon="2.65336">
        <ele>97</ele>
        <time>2015-05-16T09:17:01Z</time>
      </trkpt>
      <trkpt lat="48.40182" lon="2.65265">
        <ele>97</ele>
        <time>2015-05-16T09:17:37Z</time>
      </trkpt>
      <trkpt lat="48.40186" lon="2.65252">
        <ele>97</ele>
        <time>2015-05-16T09:17:45Z</time>
      </trkpt>
      <trkpt lat="48.40195" lon="2.65198">
        <ele>98</ele>
        <time>2015-05-16T09:18:16Z</time>
      </trkpt>
      <trkpt lat="48.40203" lon="2.65128">
        <ele>99</ele>
        <time>2015-05-16T09:18:48Z</time>
      </trkpt>
      <trkpt lat="48.40211" lon="2.65071">
        <ele>101</ele>
        <time>2015-05-16T09:19:18Z</time>
      </trkpt>
      <trkpt lat="48.4022" lon="2.65014">
        <ele>104</ele>
        <time>2015-05-16T09:19:48Z</time>
      </trkpt>
      <trkpt lat="48.40227" lon="2.64986">
        <ele>104</ele>
        <time>2015-05-16T09:20:02Z</time>
      </trkpt>
      <trkpt lat="48.4023" lon="2.64941">
        <ele>107</ele>
        <time>2015-05-16T09:20:23Z</time>
      </trkpt>
      <trkpt lat="48.40235" lon="2.64885">
        <ele>107</ele>
        <time>2015-05-16T09:20:50Z</time>
      </trkpt>
      <trkpt lat="48.40237" lon="2.6487">
        <ele>107</ele>
        <time>2015-05-16T09:20:58Z</time>
      </trkpt>
      <trkpt lat="48.40241" lon="2.64857">
        <ele>107</ele>
        <time>2015-05-16T09:21:05Z</time>
      </trkpt>
      <trkpt lat="48.40242" lon="2.64825">
        <ele>107</ele>
        <time>2015-05-16T09:21:17Z</time>
      </trkpt>
      <trkpt lat="48.40241" lon="2.64817">
        <ele>108</ele>
        <time>2015-05-16T09:21:19Z</time>
      </trkpt>
      <trkpt lat="48.40254" lon="2.64763">
        <ele>111</ele>
        <time>2015-05-16T09:21:51Z</time>
      </trkpt>
      <trkpt lat="48.40257" lon="2.64748">
        <ele>111</ele>
        <time>2015-05-16T09:21:59Z</time>
      </trkpt>
      <trkpt lat="48.40264" lon="2.64694">
        <ele>113</ele>
        <time>2015-05-16T09:22:28Z</time>
      </trkpt>
      <trkpt lat="48.4027" lon="2.6465">
        <ele>112</ele>
        <time>2015-05-16T09:22:53Z</time>
      </trkpt>
      <trkpt lat="48.40284" lon="2.64596">
        <ele>115</ele>
        <time>2015-05-16T09:23:27Z</time>
      </trkpt>
      <trkpt lat="48.40292" lon="2.64524">
        <ele>115</ele>
        <time>2015-05-16T09:24:02Z</time>
      </trkpt>
      <trkpt lat="48.40293" lon="2.64509">
        <ele>115</ele>
        <time>2015-05-16T09:24:08Z</time>
      </trkpt>
      <trkpt lat="48.40296" lon="2.64496">
        <ele>115</ele>
        <time>2015-05-16T09:24:15Z</time>
      </trkpt>
      <trkpt lat="48.40306" lon="2.64439">
        <ele>116</ele>
        <time>2015-05-16T09:24:46Z</time>
      </trkpt>
      <trkpt lat="48.40308" lon="2.64425">
        <ele>116</ele>
        <time>2015-05-16T09:24:53Z</time>
      </trkpt>
      <trkpt lat="48.40315" lon="2.6435">
        <ele>117</ele>
        <time>2015-05-16T09:25:25Z</time>
      </trkpt>
      <trkpt lat="48.40322" lon="2.6431">
        <ele>119</ele>
        <time>2015-05-16T09:25:50Z</time>
      </trkpt>
      <trkpt lat="48.40329" lon="2.64238">
        <ele>119</ele>
        <time>2015-05-16T09:26:22Z</time>
      </trkpt>
      <trkpt lat="48.4034" lon="2.6417">
        <ele>124</ele>
        <time>2015-05-16T09:26:58Z</time>
      </trkpt>
      <trkpt lat="48.40341" lon="2.64154">
        <ele>124</ele>
        <time>2015-05-16T09:27:05Z</time>
      </trkpt>
      <trkpt lat="48.40343" lon="2.64127">
        <ele>123</ele>
        <time>2015-05-16T09:27:21Z</time>
      </trkpt>
      <trkpt lat="48.40344" lon="2.64113">
        <ele>124</ele>
        <time>2015-05-16T09:27:27Z</time>
      </trkpt>
      <trkpt lat="48.4035" lon="2.64102">
        <ele>124</ele>
        <time>2015-05-16T09:27:35Z</time>
      </trkpt>
      <trkpt lat="48.40356" lon="2.6409">
        <ele>125</ele>
        <time>2015-05-16T09:27:43Z</time>
      </trkpt>
      <trkpt lat="48.40364" lon="2.64031">
        <ele>127</ele>
        <time>2015-05-16T09:28:13Z</time>
      </trkpt>
      <trkpt lat="48.40373" lon="2.63992">
        <ele>127</ele>
        <time>2015-05-16T09:28:37Z</time>
      </trkpt>
      <trkpt lat="48.40376" lon="2.63978">
        <ele>128</ele>
        <time>2015-05-16T09:28:44Z</time>
      </trkpt>
      <trkpt lat="48.40391" lon="2.63927">
        <ele>130</ele>
        <time>2015-05-16T09:29:15Z</time>
      </trkpt>
      <trkpt lat="48.40404" lon="2.63886">
        <ele>131</ele>
        <time>2015-05-16T09:29:37Z</time>
      </trkpt>
      <trkpt lat="48.40403" lon="2.63858">
        <ele>131</ele>
        <time>2015-05-16T09:29:55Z</time>
      </trkpt>
      <trkpt lat="48.40401" lon="2.63851">
        <ele>132</ele>
        <time>2015-05-16T09:30:07Z</time>
      </trkpt>
    </trkseg>
  </trk>
</gpx>